sensor_id;sensor_type;location;lat;lon;timestamp;temperature;humidity
16801;DHT22;8518;53.236;10.384;2023-04-03T00:02:52;0.80;99.90
16801;DHT22;8518;53.236;10.384;2023-04-03T00:05:18;0.40;99.90
16801;DHT22;8518;53.236;10.384;2023-04-03T00:07:43;0.80;99.90
16801;DHT22;8518;53.236;10.384;2023-04-03T00:10:12;2.30;99.90
16801;DHT22;8518;53.236;10.384;2023-04-03T00:16:00;0.70;99.90
16801;DHT22;8518;53.236;10.384;2023-04-03T00:21:48;0.90;99.90
16801;DHT22;8518;53.236;10.384;2023-04-03T00:27:37;0.70;99.90
16801;DHT22;8518;53.236;10.384;2023-04-03T00:30:04;2.50;99.90
16801;DHT22;8518;53.236;10.384;2023-04-03T00:35:51;0.60;99.90
16801;DHT22;8518;53.236;10.384;2023-04-03T00:41:39;1.20;99.90
16801;DHT22;8518;53.236;10.384;2023-04-03T00:47:28;0.60;99.90
16801;DHT22;8518;53.236;10.384;2023-04-03T00:49:55;0.50;99.90
16801;DHT22;8518;53.236;10.384;2023-04-03T00:52:23;0.50;99.90
16801;DHT22;8518;53.236;10.384;2023-04-03T00:54:52;0.40;99.90
16801;DHT22;8518;53.236;10.384;2023-04-03T00:57:21;0.50;99.90
16801;DHT22;8518;53.236;10.384;2023-04-03T00:59:50;0.50;99.90
16801;DHT22;8518;53.236;10.384;2023-04-03T01:02:17;1.90;99.90
16801;DHT22;8518;53.236;10.384;2023-04-03T01:04:43;1.70;99.90
16801;DHT22;8518;53.236;10.384;2023-04-03T01:07:21;0.40;99.90
16801;DHT22;8518;53.236;10.384;2023-04-03T01:09:49;0.50;99.90
16801;DHT22;8518;53.236;10.384;2023-04-03T01:15:39;0.50;99.90
16801;DHT22;8518;53.236;10.384;2023-04-03T01:22:24;0.40;99.90
16801;DHT22;8518;53.236;10.384;2023-04-03T01:26:51;0.30;99.90
16801;DHT22;8518;53.236;10.384;2023-04-03T01:29:17;0.20;99.90
16801;DHT22;8518;53.236;10.384;2023-04-03T01:31:56;0.30;99.90
16801;DHT22;8518;53.236;10.384;2023-04-03T01:34:23;1.30;99.90
16801;DHT22;8518;53.236;10.384;2023-04-03T01:36:50;0.20;99.90
16801;DHT22;8518;53.236;10.384;2023-04-03T01:39:18;0.20;99.90
16801;DHT22;8518;53.236;10.384;2023-04-03T01:41:45;0.10;99.90
16801;DHT22;8518;53.236;10.384;2023-04-03T01:47:32;0.30;99.90
16801;DHT22;8518;53.236;10.384;2023-04-03T01:49:58;0.20;99.90
16801;DHT22;8518;53.236;10.384;2023-04-03T01:55:46;0.10;99.90
16801;DHT22;8518;53.236;10.384;2023-04-03T02:01:33;0.20;99.90
16801;DHT22;8518;53.236;10.384;2023-04-03T02:07:21;0.20;99.90
16801;DHT22;8518;53.236;10.384;2023-04-03T02:09:47;0.10;99.90
16801;DHT22;8518;53.236;10.384;2023-04-03T02:12:13;0.00;99.90
16801;DHT22;8518;53.236;10.384;2023-04-03T02:14:38;-0.10;99.90
16801;DHT22;8518;53.236;10.384;2023-04-03T02:17:04;0.00;99.90
16801;DHT22;8518;53.236;10.384;2023-04-03T02:19:34;-0.10;99.90
16801;DHT22;8518;53.236;10.384;2023-04-03T02:22:01;-0.40;99.90
16801;DHT22;8518;53.236;10.384;2023-04-03T02:24:26;0.90;99.90
16801;DHT22;8518;53.236;10.384;2023-04-03T02:26:52;-0.10;99.90
16801;DHT22;8518;53.236;10.384;2023-04-03T02:29:18;-1.00;99.90
16801;DHT22;8518;53.236;10.384;2023-04-03T02:31:44;-0.10;99.90
16801;DHT22;8518;53.236;10.384;2023-04-03T02:37:32;0.00;99.90
16801;DHT22;8518;53.236;10.384;2023-04-03T02:39:59;-0.10;99.90
16801;DHT22;8518;53.236;10.384;2023-04-03T02:45:47;-0.10;99.90
16801;DHT22;8518;53.236;10.384;2023-04-03T02:48:13;-0.10;99.90
16801;DHT22;8518;53.236;10.384;2023-04-03T02:50:40;-0.10;99.90
16801;DHT22;8518;53.236;10.384;2023-04-03T02:56:27;-0.10;99.90
16801;DHT22;8518;53.236;10.384;2023-04-03T02:58:53;-0.20;99.90
16801;DHT22;8518;53.236;10.384;2023-04-03T03:01:18;-0.60;99.90
16801;DHT22;8518;53.236;10.384;2023-04-03T03:07:06;-0.20;99.90
16801;DHT22;8518;53.236;10.384;2023-04-03T03:09:32;-0.20;99.90
16801;DHT22;8518;53.236;10.384;2023-04-03T03:11:57;1.20;99.90
16801;DHT22;8518;53.236;10.384;2023-04-03T03:14:23;-0.30;99.90
16801;DHT22;8518;53.236;10.384;2023-04-03T03:16:49;0.30;99.90
16801;DHT22;8518;53.236;10.384;2023-04-03T03:19:14;-0.30;99.90
16801;DHT22;8518;53.236;10.384;2023-04-03T03:21:40;-0.30;99.90
16801;DHT22;8518;53.236;10.384;2023-04-03T03:27:28;-0.30;99.90
16801;DHT22;8518;53.236;10.384;2023-04-03T03:29:53;-0.30;99.90
16801;DHT22;8518;53.236;10.384;2023-04-03T03:32:19;-0.40;99.90
16801;DHT22;8518;53.236;10.384;2023-04-03T03:34:45;-0.40;99.90
16801;DHT22;8518;53.236;10.384;2023-04-03T03:37:10;-0.30;99.90
16801;DHT22;8518;53.236;10.384;2023-04-03T03:39:36;-0.30;99.90
16801;DHT22;8518;53.236;10.384;2023-04-03T03:42:01;-0.30;99.90
16801;DHT22;8518;53.236;10.384;2023-04-03T03:44:27;0.40;99.90
16801;DHT22;8518;53.236;10.384;2023-04-03T03:46:54;-0.30;99.90
16801;DHT22;8518;53.236;10.384;2023-04-03T03:57:34;-0.40;99.90
16801;DHT22;8518;53.236;10.384;2023-04-03T04:05:48;-0.40;99.90
16801;DHT22;8518;53.236;10.384;2023-04-03T04:16:28;0.20;99.90
16801;DHT22;8518;53.236;10.384;2023-04-03T04:18:53;-0.80;99.90
16801;DHT22;8518;53.236;10.384;2023-04-03T04:21:19;-1.20;99.90
16801;DHT22;8518;53.236;10.384;2023-04-03T04:27:07;-0.50;99.90
16801;DHT22;8518;53.236;10.384;2023-04-03T04:32:56;-0.50;99.90
16801;DHT22;8518;53.236;10.384;2023-04-03T04:35:23;-0.50;99.90
16801;DHT22;8518;53.236;10.384;2023-04-03T04:37:48;-0.50;99.90
16801;DHT22;8518;53.236;10.384;2023-04-03T04:40:15;-0.70;99.90
16801;DHT22;8518;53.236;10.384;2023-04-03T04:46:12;-0.50;99.90
16801;DHT22;8518;53.236;10.384;2023-04-03T04:48:38;-0.80;99.90
16801;DHT22;8518;53.236;10.384;2023-04-03T04:51:03;1.70;99.90
16801;DHT22;8518;53.236;10.384;2023-04-03T04:56:51;-0.40;99.90
16801;DHT22;8518;53.236;10.384;2023-04-03T04:59:17;-0.40;99.90
16801;DHT22;8518;53.236;10.384;2023-04-03T05:01:43;-0.40;99.90
16801;DHT22;8518;53.236;10.384;2023-04-03T05:07:31;-0.30;99.90
16801;DHT22;8518;53.236;10.384;2023-04-03T05:09:56;-0.30;99.90
16801;DHT22;8518;53.236;10.384;2023-04-03T05:15:44;-0.20;99.90
16801;DHT22;8518;53.236;10.384;2023-04-03T05:18:10;1.30;99.90
16801;DHT22;8518;53.236;10.384;2023-04-03T05:23:59;0.00;99.90
16801;DHT22;8518;53.236;10.384;2023-04-03T05:26:25;0.00;99.90
16801;DHT22;8518;53.236;10.384;2023-04-03T05:28:52;0.00;99.90
16801;DHT22;8518;53.236;10.384;2023-04-03T05:31:17;0.10;99.90
16801;DHT22;8518;53.236;10.384;2023-04-03T05:37:05;0.40;99.90
16801;DHT22;8518;53.236;10.384;2023-04-03T05:42:53;0.60;99.90
16801;DHT22;8518;53.236;10.384;2023-04-03T05:45:18;0.50;99.90
16801;DHT22;8518;53.236;10.384;2023-04-03T05:47:44;0.90;99.90
16801;DHT22;8518;53.236;10.384;2023-04-03T05:50:10;1.00;99.90
16801;DHT22;8518;53.236;10.384;2023-04-03T05:55:57;1.30;99.90
16801;DHT22;8518;53.236;10.384;2023-04-03T06:01:45;1.60;99.90
16801;DHT22;8518;53.236;10.384;2023-04-03T06:07:33;1.90;99.90
16801;DHT22;8518;53.236;10.384;2023-04-03T06:09:58;1.80;99.90
16801;DHT22;8518;53.236;10.384;2023-04-03T06:15:46;3.00;99.90
16801;DHT22;8518;53.236;10.384;2023-04-03T06:18:12;2.30;99.90
16801;DHT22;8518;53.236;10.384;2023-04-03T06:20:37;4.70;99.90
16801;DHT22;8518;53.236;10.384;2023-04-03T06:26:25;3.40;99.90
16801;DHT22;8518;53.236;10.384;2023-04-03T06:32:13;3.90;99.90
16801;DHT22;8518;53.236;10.384;2023-04-03T06:34:39;4.20;99.90
16801;DHT22;8518;53.236;10.384;2023-04-03T06:37:05;4.40;99.90
16801;DHT22;8518;53.236;10.384;2023-04-03T06:39:30;4.60;99.90
16801;DHT22;8518;53.236;10.384;2023-04-03T06:41:56;4.80;99.90
16801;DHT22;8518;53.236;10.384;2023-04-03T06:44:22;5.00;99.90
16801;DHT22;8518;53.236;10.384;2023-04-03T06:46:47;5.00;99.90
16801;DHT22;8518;53.236;10.384;2023-04-03T06:49:13;6.60;99.90
16801;DHT22;8518;53.236;10.384;2023-04-03T06:51:43;5.50;99.90
16801;DHT22;8518;53.236;10.384;2023-04-03T06:57:31;6.00;99.90
16801;DHT22;8518;53.236;10.384;2023-04-03T06:59:56;6.20;99.90
16801;DHT22;8518;53.236;10.384;2023-04-03T07:05:44;6.70;99.90
16801;DHT22;8518;53.236;10.384;2023-04-03T07:08:10;6.90;99.90
16801;DHT22;8518;53.236;10.384;2023-04-03T07:10:38;8.20;99.90
16801;DHT22;8518;53.236;10.384;2023-04-03T07:16:25;7.50;99.90
16801;DHT22;8518;53.236;10.384;2023-04-03T07:18:51;7.60;99.90
16801;DHT22;8518;53.236;10.384;2023-04-03T07:21:17;7.80;99.90
16801;DHT22;8518;53.236;10.384;2023-04-03T07:27:05;8.70;99.90
16801;DHT22;8518;53.236;10.384;2023-04-03T07:29:31;9.00;99.90
16801;DHT22;8518;53.236;10.384;2023-04-03T07:31:57;8.80;99.90
16801;DHT22;8518;53.236;10.384;2023-04-03T07:34:23;8.60;99.90
16801;DHT22;8518;53.236;10.384;2023-04-03T07:36:48;9.10;99.90
16801;DHT22;8518;53.236;10.384;2023-04-03T07:39:17;9.70;99.90
16801;DHT22;8518;53.236;10.384;2023-04-03T07:41:48;9.90;99.90
16801;DHT22;8518;53.236;10.384;2023-04-03T07:47:38;10.00;99.90
16801;DHT22;8518;53.236;10.384;2023-04-03T07:50:08;9.70;99.90
16801;DHT22;8518;53.236;10.384;2023-04-03T07:55:59;10.20;99.90
16801;DHT22;8518;53.236;10.384;2023-04-03T07:58:29;12.00;99.90
16801;DHT22;8518;53.236;10.384;2023-04-03T08:00:55;12.00;98.90
16801;DHT22;8518;53.236;10.384;2023-04-03T08:06:42;12.60;94.60
16801;DHT22;8518;53.236;10.384;2023-04-03T08:09:08;13.20;93.00
16801;DHT22;8518;53.236;10.384;2023-04-03T08:11:37;14.10;92.40
16801;DHT22;8518;53.236;10.384;2023-04-03T08:17:25;17.00;83.10
16801;DHT22;8518;53.236;10.384;2023-04-03T08:19:54;19.70;72.40
16801;DHT22;8518;53.236;10.384;2023-04-03T08:22:20;20.90;61.50
16801;DHT22;8518;53.236;10.384;2023-04-03T08:24:46;22.60;53.30
16801;DHT22;8518;53.236;10.384;2023-04-03T08:27:13;24.00;48.60
16801;DHT22;8518;53.236;10.384;2023-04-03T08:29:39;25.10;45.00
16801;DHT22;8518;53.236;10.384;2023-04-03T08:32:05;26.50;41.40
16801;DHT22;8518;53.236;10.384;2023-04-03T08:34:36;26.60;37.70
16801;DHT22;8518;53.236;10.384;2023-04-03T08:37:05;26.90;35.10
16801;DHT22;8518;53.236;10.384;2023-04-03T08:39:31;27.60;34.00
16801;DHT22;8518;53.236;10.384;2023-04-03T08:41:59;26.90;31.50
16801;DHT22;8518;53.236;10.384;2023-04-03T08:47:27;26.60;32.10
16801;DHT22;8518;53.236;10.384;2023-04-03T08:49:58;26.60;30.20
16801;DHT22;8518;53.236;10.384;2023-04-03T08:55:51;27.40;30.50
16801;DHT22;8518;53.236;10.384;2023-04-03T08:58:29;28.10;29.30
16801;DHT22;8518;53.236;10.384;2023-04-03T09:01:02;28.60;28.00
16801;DHT22;8518;53.236;10.384;2023-04-03T09:06:57;27.80;27.20
16801;DHT22;8518;53.236;10.384;2023-04-03T09:09:42;28.10;27.20
16801;DHT22;8518;53.236;10.384;2023-04-03T09:14:53;28.90;26.20
16801;DHT22;8518;53.236;10.384;2023-04-03T09:27:04;27.40;24.90
16801;DHT22;8518;53.236;10.384;2023-04-03T09:29:33;28.00;24.60
16801;DHT22;8518;53.236;10.384;2023-04-03T09:34:39;23.40;27.00
16801;DHT22;8518;53.236;10.384;2023-04-03T09:37:52;23.30;27.00
16801;DHT22;8518;53.236;10.384;2023-04-03T09:56:00;30.20;24.90
16801;DHT22;8518;53.236;10.384;2023-04-03T09:58:38;31.40;24.20
16801;DHT22;8518;53.236;10.384;2023-04-03T10:01:27;32.10;23.70
16801;DHT22;8518;53.236;10.384;2023-04-03T10:07:42;31.00;22.70
16801;DHT22;8518;53.236;10.384;2023-04-03T10:10:20;31.80;22.30
16801;DHT22;8518;53.236;10.384;2023-04-03T10:16:13;29.40;21.70
16801;DHT22;8518;53.236;10.384;2023-04-03T10:18:42;26.70;22.80
16801;DHT22;8518;53.236;10.384;2023-04-03T10:41:49;23.20;26.00
16801;DHT22;8518;53.236;10.384;2023-04-03T10:54:13;20.20;28.20
16801;DHT22;8518;53.236;10.384;2023-04-03T10:57:17;18.70;30.00
16801;DHT22;8518;53.236;10.384;2023-04-03T11:05:39;17.40;34.30
16801;DHT22;8518;53.236;10.384;2023-04-03T11:08:13;20.20;30.80
16801;DHT22;8518;53.236;10.384;2023-04-03T11:10:53;23.80;27.50
16801;DHT22;8518;53.236;10.384;2023-04-03T11:16:46;21.90;27.60
16801;DHT22;8518;53.236;10.384;2023-04-03T11:22:43;18.60;30.70
16801;DHT22;8518;53.236;10.384;2023-04-03T11:36:48;14.60;36.60
16801;DHT22;8518;53.236;10.384;2023-04-03T11:39:31;14.30;38.50
16801;DHT22;8518;53.236;10.384;2023-04-03T11:42:20;17.00;34.70
16801;DHT22;8518;53.236;10.384;2023-04-03T11:51:00;21.20;28.10
16801;DHT22;8518;53.236;10.384;2023-04-03T11:56:47;16.60;33.40
16801;DHT22;8518;53.236;10.384;2023-04-03T11:59:16;15.20;36.90
16801;DHT22;8518;53.236;10.384;2023-04-03T12:01:51;15.10;37.00
16801;DHT22;8518;53.236;10.384;2023-04-03T12:04:20;16.20;37.00
16801;DHT22;8518;53.236;10.384;2023-04-03T12:09:29;19.80;31.50
16801;DHT22;8518;53.236;10.384;2023-04-03T12:12:00;23.30;29.30
16801;DHT22;8518;53.236;10.384;2023-04-03T12:14:30;22.80;26.90
16801;DHT22;8518;53.236;10.384;2023-04-03T12:16:57;20.60;28.40
16801;DHT22;8518;53.236;10.384;2023-04-03T12:19:33;19.30;29.80
16801;DHT22;8518;53.236;10.384;2023-04-03T12:24:33;15.90;34.30
16801;DHT22;8518;53.236;10.384;2023-04-03T12:27:26;15.10;36.40
16801;DHT22;8518;53.236;10.384;2023-04-03T12:36:02;14.00;37.80
16801;DHT22;8518;53.236;10.384;2023-04-03T12:38:58;15.50;36.70
16801;DHT22;8518;53.236;10.384;2023-04-03T12:42:01;15.50;36.60
16801;DHT22;8518;53.236;10.384;2023-04-03T12:45:01;14.50;39.00
16801;DHT22;8518;53.236;10.384;2023-04-03T12:47:35;13.50;41.70
16801;DHT22;8518;53.236;10.384;2023-04-03T12:50:04;12.60;42.30
16801;DHT22;8518;53.236;10.384;2023-04-03T12:55:59;11.70;44.10
16801;DHT22;8518;53.236;10.384;2023-04-03T12:58:43;11.50;44.60
16801;DHT22;8518;53.236;10.384;2023-04-03T13:01:14;11.60;45.60
16801;DHT22;8518;53.236;10.384;2023-04-03T13:07:22;15.30;41.40
16801;DHT22;8518;53.236;10.384;2023-04-03T13:09:58;16.50;37.80
16801;DHT22;8518;53.236;10.384;2023-04-03T13:15:49;17.60;35.10
16801;DHT22;8518;53.236;10.384;2023-04-03T13:18:30;19.30;32.10
16801;DHT22;8518;53.236;10.384;2023-04-03T13:21:18;19.70;30.60
16801;DHT22;8518;53.236;10.384;2023-04-03T13:27:06;19.90;30.60
16801;DHT22;8518;53.236;10.384;2023-04-03T13:29:36;19.40;30.10
16801;DHT22;8518;53.236;10.384;2023-04-03T13:32:04;17.80;32.60
16801;DHT22;8518;53.236;10.384;2023-04-03T13:34:41;16.90;34.30
16801;DHT22;8518;53.236;10.384;2023-04-03T13:37:11;15.50;35.90
16801;DHT22;8518;53.236;10.384;2023-04-03T13:39:45;14.50;38.30
16801;DHT22;8518;53.236;10.384;2023-04-03T13:46:05;12.70;42.10
16801;DHT22;8518;53.236;10.384;2023-04-03T13:48:46;12.10;42.50
16801;DHT22;8518;53.236;10.384;2023-04-03T13:57:12;13.80;41.40
16801;DHT22;8518;53.236;10.384;2023-04-03T13:59:39;13.90;39.40
16801;DHT22;8518;53.236;10.384;2023-04-03T14:06:58;13.00;41.40
16801;DHT22;8518;53.236;10.384;2023-04-03T14:09:26;12.40;42.10
16801;DHT22;8518;53.236;10.384;2023-04-03T14:11:55;12.10;41.90
16801;DHT22;8518;53.236;10.384;2023-04-03T14:14:35;12.20;43.40
16801;DHT22;8518;53.236;10.384;2023-04-03T14:17:10;12.30;44.60
16801;DHT22;8518;53.236;10.384;2023-04-03T14:19:38;12.70;43.30
16801;DHT22;8518;53.236;10.384;2023-04-03T14:24:59;13.20;42.90
16801;DHT22;8518;53.236;10.384;2023-04-03T14:27:37;13.40;42.40
16801;DHT22;8518;53.236;10.384;2023-04-03T14:30:12;13.50;42.40
16801;DHT22;8518;53.236;10.384;2023-04-03T14:36:15;13.50;41.10
16801;DHT22;8518;53.236;10.384;2023-04-03T14:38:43;13.20;41.40
16801;DHT22;8518;53.236;10.384;2023-04-03T14:41:13;12.70;40.90
16801;DHT22;8518;53.236;10.384;2023-04-03T14:47:02;11.10;43.90
16801;DHT22;8518;53.236;10.384;2023-04-03T14:49:28;10.60;44.90
16801;DHT22;8518;53.236;10.384;2023-04-03T14:51:57;10.60;45.00
16801;DHT22;8518;53.236;10.384;2023-04-03T14:54:23;10.80;45.60
16801;DHT22;8518;53.236;10.384;2023-04-03T14:56:53;11.00;45.80
16801;DHT22;8518;53.236;10.384;2023-04-03T14:59:21;11.00;44.60
16801;DHT22;8518;53.236;10.384;2023-04-03T15:01:47;12.20;45.60
16801;DHT22;8518;53.236;10.384;2023-04-03T15:07:41;10.70;45.40
16801;DHT22;8518;53.236;10.384;2023-04-03T15:10:22;11.60;48.70
16801;DHT22;8518;53.236;10.384;2023-04-03T15:16:16;10.50;47.20
16801;DHT22;8518;53.236;10.384;2023-04-03T15:18:45;10.40;47.20
16801;DHT22;8518;53.236;10.384;2023-04-03T15:21:11;10.40;47.00
16801;DHT22;8518;53.236;10.384;2023-04-03T15:27:00;10.50;47.00
16801;DHT22;8518;53.236;10.384;2023-04-03T15:29:32;10.40;46.60
16801;DHT22;8518;53.236;10.384;2023-04-03T15:31:57;10.60;45.70
16801;DHT22;8518;53.236;10.384;2023-04-03T15:34:25;10.00;45.50
16801;DHT22;8518;53.236;10.384;2023-04-03T15:36:51;9.90;47.60
16801;DHT22;8518;53.236;10.384;2023-04-03T15:39:17;9.90;47.70
16801;DHT22;8518;53.236;10.384;2023-04-03T15:41:44;11.00;47.60
16801;DHT22;8518;53.236;10.384;2023-04-03T15:47:32;9.20;47.30
16801;DHT22;8518;53.236;10.384;2023-04-03T15:49:58;9.10;47.60
16801;DHT22;8518;53.236;10.384;2023-04-03T15:55:47;9.00;47.70
16801;DHT22;8518;53.236;10.384;2023-04-03T16:01:36;8.90;48.40
16801;DHT22;8518;53.236;10.384;2023-04-03T16:07:24;8.80;50.00
16801;DHT22;8518;53.236;10.384;2023-04-03T16:09:49;8.40;47.90
16801;DHT22;8518;53.236;10.384;2023-04-03T16:12:18;8.20;48.80
16801;DHT22;8518;53.236;10.384;2023-04-03T16:14:43;8.00;49.60
16801;DHT22;8518;53.236;10.384;2023-04-03T16:17:09;8.00;49.20
16801;DHT22;8518;53.236;10.384;2023-04-03T16:19:38;7.90;50.20
16801;DHT22;8518;53.236;10.384;2023-04-03T16:22:04;7.70;51.70
16801;DHT22;8518;53.236;10.384;2023-04-03T16:24:30;7.60;53.80
16801;DHT22;8518;53.236;10.384;2023-04-03T16:26:55;7.70;55.30
16801;DHT22;8518;53.236;10.384;2023-04-03T16:29:21;7.50;54.80
16801;DHT22;8518;53.236;10.384;2023-04-03T16:31:47;8.50;56.20
16801;DHT22;8518;53.236;10.384;2023-04-03T16:37:34;7.40;55.80
16801;DHT22;8518;53.236;10.384;2023-04-03T16:43:22;7.30;59.10
16801;DHT22;8518;53.236;10.384;2023-04-03T16:45:48;8.20;60.10
16801;DHT22;8518;53.236;10.384;2023-04-03T16:48:14;7.90;60.90
16801;DHT22;8518;53.236;10.384;2023-04-03T16:50:39;7.00;60.10
16801;DHT22;8518;53.236;10.384;2023-04-03T16:56:29;7.00;60.90
16801;DHT22;8518;53.236;10.384;2023-04-03T16:58:54;6.90;62.80
16801;DHT22;8518;53.236;10.384;2023-04-03T17:01:22;7.20;61.50
16801;DHT22;8518;53.236;10.384;2023-04-03T17:07:12;6.50;62.50
16801;DHT22;8518;53.236;10.384;2023-04-03T17:09:38;6.30;63.00
16801;DHT22;8518;53.236;10.384;2023-04-03T17:12:04;7.30;64.50
16801;DHT22;8518;53.236;10.384;2023-04-03T17:14:30;6.20;63.60
16801;DHT22;8518;53.236;10.384;2023-04-03T17:17:02;6.10;63.30
16801;DHT22;8518;53.236;10.384;2023-04-03T17:19:28;6.10;63.70
16801;DHT22;8518;53.236;10.384;2023-04-03T17:21:56;6.00;65.70
16801;DHT22;8518;53.236;10.384;2023-04-03T17:24:22;5.90;63.40
16801;DHT22;8518;53.236;10.384;2023-04-03T17:26:48;6.30;65.00
16801;DHT22;8518;53.236;10.384;2023-04-03T17:29:14;6.40;67.60
16801;DHT22;8518;53.236;10.384;2023-04-03T17:31:42;5.70;69.70
16801;DHT22;8518;53.236;10.384;2023-04-03T17:37:29;5.60;72.80
16801;DHT22;8518;53.236;10.384;2023-04-03T17:39:55;5.70;76.70
16801;DHT22;8518;53.236;10.384;2023-04-03T17:42:20;5.40;78.20
16801;DHT22;8518;53.236;10.384;2023-04-03T17:44:46;5.30;80.00
16801;DHT22;8518;53.236;10.384;2023-04-03T17:47:12;5.20;82.40
16801;DHT22;8518;53.236;10.384;2023-04-03T17:49:40;6.80;85.30
16801;DHT22;8518;53.236;10.384;2023-04-03T17:52:05;5.10;86.10
16801;DHT22;8518;53.236;10.384;2023-04-03T17:54:31;6.80;89.40
16801;DHT22;8518;53.236;10.384;2023-04-03T17:56:57;5.40;90.00
16801;DHT22;8518;53.236;10.384;2023-04-03T17:59:22;4.80;90.40
16801;DHT22;8518;53.236;10.384;2023-04-03T18:01:48;4.80;91.60
16801;DHT22;8518;53.236;10.384;2023-04-03T18:07:36;4.60;92.50
16801;DHT22;8518;53.236;10.384;2023-04-03T18:10:04;4.60;93.10
16801;DHT22;8518;53.236;10.384;2023-04-03T18:15:54;4.40;94.20
16801;DHT22;8518;53.236;10.384;2023-04-03T18:18:20;4.40;95.20
16801;DHT22;8518;53.236;10.384;2023-04-03T18:20:48;4.30;95.60
16801;DHT22;8518;53.236;10.384;2023-04-03T18:26:37;4.20;96.70
16801;DHT22;8518;53.236;10.384;2023-04-03T18:29:06;4.00;97.20
16801;DHT22;8518;53.236;10.384;2023-04-03T18:31:34;4.00;97.70
16801;DHT22;8518;53.236;10.384;2023-04-03T18:37:22;4.00;98.70
16801;DHT22;8518;53.236;10.384;2023-04-03T18:39:49;3.90;99.40
16801;DHT22;8518;53.236;10.384;2023-04-03T18:42:18;3.60;99.60
16801;DHT22;8518;53.236;10.384;2023-04-03T18:44:47;3.80;99.70
16801;DHT22;8518;53.236;10.384;2023-04-03T18:47:14;3.80;99.90
16801;DHT22;8518;53.236;10.384;2023-04-03T18:49:40;3.70;99.90
16801;DHT22;8518;53.236;10.384;2023-04-03T18:52:07;3.70;99.90
16801;DHT22;8518;53.236;10.384;2023-04-03T18:54:34;3.70;99.90
16801;DHT22;8518;53.236;10.384;2023-04-03T18:57:02;3.50;99.90
16801;DHT22;8518;53.236;10.384;2023-04-03T18:59:28;3.60;99.90
16801;DHT22;8518;53.236;10.384;2023-04-03T19:01:54;3.50;99.90
16801;DHT22;8518;53.236;10.384;2023-04-03T19:04:20;4.80;99.90
16801;DHT22;8518;53.236;10.384;2023-04-03T19:06:46;4.80;99.90
16801;DHT22;8518;53.236;10.384;2023-04-03T19:09:12;3.50;99.90
16801;DHT22;8518;53.236;10.384;2023-04-03T19:11:37;3.20;99.90
16801;DHT22;8518;53.236;10.384;2023-04-03T19:17:25;3.30;99.90
16801;DHT22;8518;53.236;10.384;2023-04-03T19:23:14;3.30;99.90
16801;DHT22;8518;53.236;10.384;2023-04-03T19:25:40;2.90;99.90
16801;DHT22;8518;53.236;10.384;2023-04-03T19:28:07;3.00;99.90
16801;DHT22;8518;53.236;10.384;2023-04-03T19:30:34;4.30;99.90
16801;DHT22;8518;53.236;10.384;2023-04-03T19:36:25;3.00;99.90
16801;DHT22;8518;53.236;10.384;2023-04-03T19:38:50;3.00;99.90
16801;DHT22;8518;53.236;10.384;2023-04-03T19:41:21;2.90;99.90
16801;DHT22;8518;53.236;10.384;2023-04-03T19:47:10;2.90;99.90
16801;DHT22;8518;53.236;10.384;2023-04-03T19:49:37;2.90;99.90
16801;DHT22;8518;53.236;10.384;2023-04-03T19:52:03;2.50;99.90
16801;DHT22;8518;53.236;10.384;2023-04-03T19:54:29;2.80;99.90
16801;DHT22;8518;53.236;10.384;2023-04-03T19:56:56;2.80;99.90
16801;DHT22;8518;53.236;10.384;2023-04-03T19:59:23;2.70;99.90
16801;DHT22;8518;53.236;10.384;2023-04-03T20:01:49;2.50;99.90
16801;DHT22;8518;53.236;10.384;2023-04-03T20:07:36;2.60;99.90
16801;DHT22;8518;53.236;10.384;2023-04-03T20:10:02;2.50;99.90
16801;DHT22;8518;53.236;10.384;2023-04-03T20:15:50;2.40;99.90
16801;DHT22;8518;53.236;10.384;2023-04-03T20:18:18;2.40;99.90
16801;DHT22;8518;53.236;10.384;2023-04-03T20:20:54;2.30;99.90
16801;DHT22;8518;53.236;10.384;2023-04-03T20:26:42;2.30;99.90
16801;DHT22;8518;53.236;10.384;2023-04-03T20:29:11;2.20;99.90
16801;DHT22;8518;53.236;10.384;2023-04-03T20:31:39;2.10;99.90
16801;DHT22;8518;53.236;10.384;2023-04-03T20:37:28;2.10;99.90
16801;DHT22;8518;53.236;10.384;2023-04-03T20:39:54;2.00;99.90
16801;DHT22;8518;53.236;10.384;2023-04-03T20:42:19;2.00;99.90
16801;DHT22;8518;53.236;10.384;2023-04-03T20:44:45;1.90;99.90
16801;DHT22;8518;53.236;10.384;2023-04-03T20:47:14;3.60;99.90
16801;DHT22;8518;53.236;10.384;2023-04-03T20:49:40;2.60;99.90
16801;DHT22;8518;53.236;10.384;2023-04-03T20:52:08;1.80;99.90
16801;DHT22;8518;53.236;10.384;2023-04-03T20:54:36;1.60;99.90
16801;DHT22;8518;53.236;10.384;2023-04-03T20:57:02;1.50;99.90
16801;DHT22;8518;53.236;10.384;2023-04-03T20:59:28;1.70;99.90
16801;DHT22;8518;53.236;10.384;2023-04-03T21:01:54;1.50;99.90
16801;DHT22;8518;53.236;10.384;2023-04-03T21:04:34;1.50;99.90
16801;DHT22;8518;53.236;10.384;2023-04-03T21:19:19;1.50;99.90
16801;DHT22;8518;53.236;10.384;2023-04-03T21:21:45;3.30;99.90
16801;DHT22;8518;53.236;10.384;2023-04-03T21:27:33;1.50;99.90
16801;DHT22;8518;53.236;10.384;2023-04-03T21:29:59;1.50;99.90
16801;DHT22;8518;53.236;10.384;2023-04-03T21:35:49;1.50;99.90
16801;DHT22;8518;53.236;10.384;2023-04-03T21:41:44;1.40;99.90
16801;DHT22;8518;53.236;10.384;2023-04-03T21:47:32;1.40;99.90
16801;DHT22;8518;53.236;10.384;2023-04-03T21:50:03;1.30;99.90
16801;DHT22;8518;53.236;10.384;2023-04-03T21:55:52;1.30;99.90
16801;DHT22;8518;53.236;10.384;2023-04-03T21:58:18;1.30;99.90
16801;DHT22;8518;53.236;10.384;2023-04-03T22:00:44;1.30;99.90
16801;DHT22;8518;53.236;10.384;2023-04-03T22:06:32;1.20;99.90
16801;DHT22;8518;53.236;10.384;2023-04-03T22:08:58;1.10;99.90
16801;DHT22;8518;53.236;10.384;2023-04-03T22:11:23;1.10;99.90
16801;DHT22;8518;53.236;10.384;2023-04-03T22:17:13;1.10;99.90
16801;DHT22;8518;53.236;10.384;2023-04-03T22:19:39;1.10;99.90
16801;DHT22;8518;53.236;10.384;2023-04-03T22:22:07;1.00;99.90
16801;DHT22;8518;53.236;10.384;2023-04-03T22:24:33;0.90;99.90
16801;DHT22;8518;53.236;10.384;2023-04-03T22:26:58;2.40;99.90
16801;DHT22;8518;53.236;10.384;2023-04-03T22:29:24;2.50;99.90
16801;DHT22;8518;53.236;10.384;2023-04-03T22:31:52;0.90;99.90
16801;DHT22;8518;53.236;10.384;2023-04-03T22:37:40;0.90;99.90
16801;DHT22;8518;53.236;10.384;2023-04-03T22:40:06;0.90;99.90
16801;DHT22;8518;53.236;10.384;2023-04-03T22:45:55;0.80;99.90
16801;DHT22;8518;53.236;10.384;2023-04-03T22:48:22;0.80;99.90
16801;DHT22;8518;53.236;10.384;2023-04-03T22:50:48;2.30;99.90
16801;DHT22;8518;53.236;10.384;2023-04-03T22:56:36;0.70;99.90
16801;DHT22;8518;53.236;10.384;2023-04-03T23:02:24;0.80;99.90
16801;DHT22;8518;53.236;10.384;2023-04-03T23:04:50;0.60;99.90
16801;DHT22;8518;53.236;10.384;2023-04-03T23:07:15;0.60;99.90
16801;DHT22;8518;53.236;10.384;2023-04-03T23:09:41;0.60;99.90
16801;DHT22;8518;53.236;10.384;2023-04-03T23:12:07;1.00;99.90
16801;DHT22;8518;53.236;10.384;2023-04-03T23:14:34;0.60;99.90
16801;DHT22;8518;53.236;10.384;2023-04-03T23:16:59;0.40;99.90
16801;DHT22;8518;53.236;10.384;2023-04-03T23:19:30;0.60;99.90